Montrose, Pennsylvania
Current Conditions -  °F | °C
As of 4:53 PM on Saturday 25 Oct 2014 (Local Time) from KBGM Reporting Station
Overcast Overcast  
Wind Chill: 61°   Ceiling: 6500
Heat Index: 61°   Visibility: 10mi
Dew Point: 44°   Wind: 9mph
Humidity: 54%   Direction: 220°SW
Pressure: 29.62"   Gusts: NA
Location:  41.83°N, 75.88°W
Report Text: KBGM 252053Z 22008KT 10SM OVC065 16/07 A2962 RMK AO2 SLP030 T01610067 56028
Loading
Personal Weather Stations






























Interactive Weather Map
Tropical Storm Tracking
New forecast layout! Learn more

10-Day Weather Forecast

Advertisements
Track Severe Weather on mobile